sensor_id;sensor_type;location;lat;lon;timestamp;temperature;humidity
33837;DHT22;20140;49.356;8.812;2023-04-03T00:01:03;3.40;99.90
33837;DHT22;20140;49.356;8.812;2023-04-03T00:03:29;3.30;99.90
33837;DHT22;20140;49.356;8.812;2023-04-03T00:05:55;3.10;99.90
33837;DHT22;20140;49.356;8.812;2023-04-03T00:08:20;3.10;99.90
33837;DHT22;20140;49.356;8.812;2023-04-03T00:10:46;3.00;99.90
33837;DHT22;20140;49.356;8.812;2023-04-03T00:13:12;2.90;99.90
33837;DHT22;20140;49.356;8.812;2023-04-03T00:15:38;2.80;99.90
33837;DHT22;20140;49.356;8.812;2023-04-03T00:18:04;2.80;99.90
33837;DHT22;20140;49.356;8.812;2023-04-03T00:20:29;2.70;99.90
33837;DHT22;20140;49.356;8.812;2023-04-03T00:22:55;2.60;99.90
33837;DHT22;20140;49.356;8.812;2023-04-03T00:25:21;2.60;99.90
33837;DHT22;20140;49.356;8.812;2023-04-03T00:27:47;2.50;99.90
33837;DHT22;20140;49.356;8.812;2023-04-03T00:30:17;2.50;99.90
33837;DHT22;20140;49.356;8.812;2023-04-03T00:32:43;2.50;99.90
33837;DHT22;20140;49.356;8.812;2023-04-03T00:35:09;2.50;99.90
33837;DHT22;20140;49.356;8.812;2023-04-03T00:37:34;2.60;99.90
33837;DHT22;20140;49.356;8.812;2023-04-03T00:40:01;2.50;99.90
33837;DHT22;20140;49.356;8.812;2023-04-03T00:42:26;2.60;99.90
33837;DHT22;20140;49.356;8.812;2023-04-03T00:47:21;2.40;99.90
33837;DHT22;20140;49.356;8.812;2023-04-03T00:49:48;2.40;99.90
33837;DHT22;20140;49.356;8.812;2023-04-03T00:52:17;2.30;99.90
33837;DHT22;20140;49.356;8.812;2023-04-03T00:54:44;2.20;99.90
33837;DHT22;20140;49.356;8.812;2023-04-03T00:57:11;2.20;99.90
33837;DHT22;20140;49.356;8.812;2023-04-03T00:59:43;2.10;99.90
33837;DHT22;20140;49.356;8.812;2023-04-03T01:02:10;2.10;99.90
33837;DHT22;20140;49.356;8.812;2023-04-03T01:04:37;2.20;99.90
33837;DHT22;20140;49.356;8.812;2023-04-03T01:07:15;2.20;99.90
33837;DHT22;20140;49.356;8.812;2023-04-03T01:09:42;2.10;99.90
33837;DHT22;20140;49.356;8.812;2023-04-03T01:12:15;2.10;99.90
33837;DHT22;20140;49.356;8.812;2023-04-03T01:14:43;2.10;99.90
33837;DHT22;20140;49.356;8.812;2023-04-03T01:17:33;2.00;99.90
33837;DHT22;20140;49.356;8.812;2023-04-03T01:25:42;1.90;99.90
33837;DHT22;20140;49.356;8.812;2023-04-03T01:28:14;1.80;99.90
33837;DHT22;20140;49.356;8.812;2023-04-03T01:30:47;1.70;99.90
33837;DHT22;20140;49.356;8.812;2023-04-03T01:33:15;1.60;99.90
33837;DHT22;20140;49.356;8.812;2023-04-03T01:35:41;1.60;99.90
33837;DHT22;20140;49.356;8.812;2023-04-03T01:38:06;1.70;99.90
33837;DHT22;20140;49.356;8.812;2023-04-03T01:40:32;1.80;99.90
33837;DHT22;20140;49.356;8.812;2023-04-03T01:42:58;1.90;99.90
33837;DHT22;20140;49.356;8.812;2023-04-03T01:45:23;2.00;99.90
33837;DHT22;20140;49.356;8.812;2023-04-03T01:47:49;2.00;99.90
33837;DHT22;20140;49.356;8.812;2023-04-03T01:50:14;2.00;99.90
33837;DHT22;20140;49.356;8.812;2023-04-03T01:52:40;2.00;99.90
33837;DHT22;20140;49.356;8.812;2023-04-03T01:55:06;2.10;99.90
33837;DHT22;20140;49.356;8.812;2023-04-03T01:57:31;2.10;99.90
33837;DHT22;20140;49.356;8.812;2023-04-03T01:59:57;2.10;99.90
33837;DHT22;20140;49.356;8.812;2023-04-03T02:02:22;2.20;99.90
33837;DHT22;20140;49.356;8.812;2023-04-03T02:04:48;2.30;99.90
33837;DHT22;20140;49.356;8.812;2023-04-03T02:07:13;2.40;99.90
33837;DHT22;20140;49.356;8.812;2023-04-03T02:09:39;2.30;99.90
33837;DHT22;20140;49.356;8.812;2023-04-03T02:12:05;2.30;99.90
33837;DHT22;20140;49.356;8.812;2023-04-03T02:14:30;2.40;99.90
33837;DHT22;20140;49.356;8.812;2023-04-03T02:16:56;2.40;99.90
33837;DHT22;20140;49.356;8.812;2023-04-03T02:19:21;2.50;99.90
33837;DHT22;20140;49.356;8.812;2023-04-03T02:21:47;2.50;99.90
33837;DHT22;20140;49.356;8.812;2023-04-03T02:24:12;2.50;99.90
33837;DHT22;20140;49.356;8.812;2023-04-03T02:26:38;2.50;99.90
33837;DHT22;20140;49.356;8.812;2023-04-03T02:29:03;2.60;99.90
33837;DHT22;20140;49.356;8.812;2023-04-03T02:31:29;2.60;99.90
33837;DHT22;20140;49.356;8.812;2023-04-03T02:33:55;2.60;99.90
33837;DHT22;20140;49.356;8.812;2023-04-03T02:36:20;2.60;99.90
33837;DHT22;20140;49.356;8.812;2023-04-03T02:38:46;2.60;99.90
33837;DHT22;20140;49.356;8.812;2023-04-03T02:41:12;2.60;99.90
33837;DHT22;20140;49.356;8.812;2023-04-03T02:43:38;2.60;99.90
33837;DHT22;20140;49.356;8.812;2023-04-03T02:46:05;2.60;99.90
33837;DHT22;20140;49.356;8.812;2023-04-03T02:48:31;2.70;99.90
33837;DHT22;20140;49.356;8.812;2023-04-03T02:50:56;2.70;99.90
33837;DHT22;20140;49.356;8.812;2023-04-03T02:53:22;2.60;99.90
33837;DHT22;20140;49.356;8.812;2023-04-03T02:55:48;2.70;99.90
33837;DHT22;20140;49.356;8.812;2023-04-03T02:58:16;2.70;99.90
33837;DHT22;20140;49.356;8.812;2023-04-03T03:00:41;2.70;99.90
33837;DHT22;20140;49.356;8.812;2023-04-03T03:03:07;2.60;99.90
33837;DHT22;20140;49.356;8.812;2023-04-03T03:05:33;2.50;99.90
33837;DHT22;20140;49.356;8.812;2023-04-03T03:07:58;2.50;99.90
33837;DHT22;20140;49.356;8.812;2023-04-03T03:10:24;2.50;99.90
33837;DHT22;20140;49.356;8.812;2023-04-03T03:12:49;2.40;99.90
33837;DHT22;20140;49.356;8.812;2023-04-03T03:15:15;2.40;99.90
33837;DHT22;20140;49.356;8.812;2023-04-03T03:17:42;2.20;99.90
33837;DHT22;20140;49.356;8.812;2023-04-03T03:20:08;2.20;99.90
33837;DHT22;20140;49.356;8.812;2023-04-03T03:22:34;2.10;99.90
33837;DHT22;20140;49.356;8.812;2023-04-03T03:25:00;2.10;99.90
33837;DHT22;20140;49.356;8.812;2023-04-03T03:27:26;2.00;99.90
33837;DHT22;20140;49.356;8.812;2023-04-03T03:29:52;2.00;99.90
33837;DHT22;20140;49.356;8.812;2023-04-03T03:32:17;1.90;99.90
33837;DHT22;20140;49.356;8.812;2023-04-03T03:34:43;1.80;99.90
33837;DHT22;20140;49.356;8.812;2023-04-03T03:37:08;1.80;99.90
33837;DHT22;20140;49.356;8.812;2023-04-03T03:39:34;1.80;99.90
33837;DHT22;20140;49.356;8.812;2023-04-03T03:41:59;1.70;99.90
33837;DHT22;20140;49.356;8.812;2023-04-03T03:44:25;1.70;99.90
33837;DHT22;20140;49.356;8.812;2023-04-03T03:46:51;1.60;99.90
33837;DHT22;20140;49.356;8.812;2023-04-03T03:49:16;1.60;99.90
33837;DHT22;20140;49.356;8.812;2023-04-03T03:51:42;1.60;99.90
33837;DHT22;20140;49.356;8.812;2023-04-03T03:54:07;1.60;99.90
33837;DHT22;20140;49.356;8.812;2023-04-03T03:56:33;1.40;99.90
33837;DHT22;20140;49.356;8.812;2023-04-03T03:58:59;1.40;99.90
33837;DHT22;20140;49.356;8.812;2023-04-03T04:01:24;1.30;99.90
33837;DHT22;20140;49.356;8.812;2023-04-03T04:03:50;1.20;99.90
33837;DHT22;20140;49.356;8.812;2023-04-03T04:06:16;1.20;99.90
33837;DHT22;20140;49.356;8.812;2023-04-03T04:08:42;1.20;99.90
33837;DHT22;20140;49.356;8.812;2023-04-03T04:11:08;1.20;99.90
33837;DHT22;20140;49.356;8.812;2023-04-03T04:13:34;1.20;99.90
33837;DHT22;20140;49.356;8.812;2023-04-03T04:15:59;1.20;99.90
33837;DHT22;20140;49.356;8.812;2023-04-03T04:18:25;1.20;99.90
33837;DHT22;20140;49.356;8.812;2023-04-03T04:20:50;1.20;99.90
33837;DHT22;20140;49.356;8.812;2023-04-03T04:23:17;1.10;99.90
33837;DHT22;20140;49.356;8.812;2023-04-03T04:25:47;1.00;99.90
33837;DHT22;20140;49.356;8.812;2023-04-03T04:28:14;1.00;99.90
33837;DHT22;20140;49.356;8.812;2023-04-03T04:30:39;0.90;99.90
33837;DHT22;20140;49.356;8.812;2023-04-03T04:33:05;0.90;99.90
33837;DHT22;20140;49.356;8.812;2023-04-03T04:35:30;0.90;99.90
33837;DHT22;20140;49.356;8.812;2023-04-03T04:37:56;0.90;99.90
33837;DHT22;20140;49.356;8.812;2023-04-03T04:40:21;1.00;99.90
33837;DHT22;20140;49.356;8.812;2023-04-03T04:42:47;1.00;99.90
33837;DHT22;20140;49.356;8.812;2023-04-03T04:45:13;1.00;99.90
33837;DHT22;20140;49.356;8.812;2023-04-03T04:47:40;0.90;99.90
33837;DHT22;20140;49.356;8.812;2023-04-03T04:50:06;0.90;99.90
33837;DHT22;20140;49.356;8.812;2023-04-03T04:52:31;0.90;99.90
33837;DHT22;20140;49.356;8.812;2023-04-03T04:54:57;0.90;99.90
33837;DHT22;20140;49.356;8.812;2023-04-03T04:57:22;0.90;99.90
33837;DHT22;20140;49.356;8.812;2023-04-03T04:59:48;0.90;99.90
33837;DHT22;20140;49.356;8.812;2023-04-03T05:02:13;0.80;99.90
33837;DHT22;20140;49.356;8.812;2023-04-03T05:04:39;0.80;99.90
33837;DHT22;20140;49.356;8.812;2023-04-03T05:07:04;0.70;99.90
33837;DHT22;20140;49.356;8.812;2023-04-03T05:09:30;0.80;99.90
33837;DHT22;20140;49.356;8.812;2023-04-03T05:11:56;0.90;99.90
33837;DHT22;20140;49.356;8.812;2023-04-03T05:14:22;0.90;99.90
33837;DHT22;20140;49.356;8.812;2023-04-03T05:16:47;0.90;99.90
33837;DHT22;20140;49.356;8.812;2023-04-03T05:19:13;0.90;99.90
33837;DHT22;20140;49.356;8.812;2023-04-03T05:21:39;0.80;99.90
33837;DHT22;20140;49.356;8.812;2023-04-03T05:24:04;0.80;99.90
33837;DHT22;20140;49.356;8.812;2023-04-03T05:26:31;0.70;99.90
33837;DHT22;20140;49.356;8.812;2023-04-03T05:28:57;0.80;99.90
33837;DHT22;20140;49.356;8.812;2023-04-03T05:31:22;0.80;99.90
33837;DHT22;20140;49.356;8.812;2023-04-03T05:33:48;0.80;99.90
33837;DHT22;20140;49.356;8.812;2023-04-03T05:36:14;0.80;99.90
33837;DHT22;20140;49.356;8.812;2023-04-03T05:38:40;0.90;99.90
33837;DHT22;20140;49.356;8.812;2023-04-03T05:41:05;0.90;99.90
33837;DHT22;20140;49.356;8.812;2023-04-03T05:43:31;0.90;99.90
33837;DHT22;20140;49.356;8.812;2023-04-03T05:45:58;0.90;99.90
33837;DHT22;20140;49.356;8.812;2023-04-03T05:48:24;0.90;99.90
33837;DHT22;20140;49.356;8.812;2023-04-03T05:50:51;1.00;99.90
33837;DHT22;20140;49.356;8.812;2023-04-03T05:53:20;1.10;99.90
33837;DHT22;20140;49.356;8.812;2023-04-03T05:55:46;1.10;99.90
33837;DHT22;20140;49.356;8.812;2023-04-03T05:58:13;1.10;99.90
33837;DHT22;20140;49.356;8.812;2023-04-03T06:00:39;1.10;99.90
33837;DHT22;20140;49.356;8.812;2023-04-03T06:03:05;1.20;99.90
33837;DHT22;20140;49.356;8.812;2023-04-03T06:05:31;1.20;99.90
33837;DHT22;20140;49.356;8.812;2023-04-03T06:07:57;1.20;99.90
33837;DHT22;20140;49.356;8.812;2023-04-03T06:10:23;1.30;99.90
33837;DHT22;20140;49.356;8.812;2023-04-03T06:12:48;1.30;99.90
33837;DHT22;20140;49.356;8.812;2023-04-03T06:15:14;1.50;99.90
33837;DHT22;20140;49.356;8.812;2023-04-03T06:17:40;1.50;99.90
33837;DHT22;20140;49.356;8.812;2023-04-03T06:20:06;1.50;99.90
33837;DHT22;20140;49.356;8.812;2023-04-03T06:22:33;1.60;99.90
33837;DHT22;20140;49.356;8.812;2023-04-03T06:24:58;1.70;99.90
33837;DHT22;20140;49.356;8.812;2023-04-03T06:27:24;1.70;99.90
33837;DHT22;20140;49.356;8.812;2023-04-03T06:29:49;1.90;99.90
33837;DHT22;20140;49.356;8.812;2023-04-03T06:32:16;2.00;99.90
33837;DHT22;20140;49.356;8.812;2023-04-03T06:34:41;2.10;99.90
33837;DHT22;20140;49.356;8.812;2023-04-03T06:37:14;2.20;99.90
33837;DHT22;20140;49.356;8.812;2023-04-03T06:39:40;2.30;99.90
33837;DHT22;20140;49.356;8.812;2023-04-03T06:42:07;2.40;99.90
33837;DHT22;20140;49.356;8.812;2023-04-03T06:44:32;2.50;99.90
33837;DHT22;20140;49.356;8.812;2023-04-03T06:47:00;2.60;99.90
33837;DHT22;20140;49.356;8.812;2023-04-03T06:49:25;2.60;99.90
33837;DHT22;20140;49.356;8.812;2023-04-03T06:51:51;2.70;99.90
33837;DHT22;20140;49.356;8.812;2023-04-03T06:54:17;2.80;99.90
33837;DHT22;20140;49.356;8.812;2023-04-03T06:56:43;2.90;99.90
33837;DHT22;20140;49.356;8.812;2023-04-03T06:59:11;2.90;99.90
33837;DHT22;20140;49.356;8.812;2023-04-03T07:01:38;3.00;99.90
33837;DHT22;20140;49.356;8.812;2023-04-03T07:04:03;3.10;99.90
33837;DHT22;20140;49.356;8.812;2023-04-03T07:06:29;3.10;99.90
33837;DHT22;20140;49.356;8.812;2023-04-03T07:08:56;3.20;99.90
33837;DHT22;20140;49.356;8.812;2023-04-03T07:11:22;3.30;99.90
33837;DHT22;20140;49.356;8.812;2023-04-03T07:13:48;3.30;99.90
33837;DHT22;20140;49.356;8.812;2023-04-03T07:16:13;3.30;99.90
33837;DHT22;20140;49.356;8.812;2023-04-03T07:18:39;3.50;99.90
33837;DHT22;20140;49.356;8.812;2023-04-03T07:21:04;3.50;99.90
33837;DHT22;20140;49.356;8.812;2023-04-03T07:23:30;3.60;99.90
33837;DHT22;20140;49.356;8.812;2023-04-03T07:25:56;3.70;99.90
33837;DHT22;20140;49.356;8.812;2023-04-03T07:28:22;3.70;99.90
33837;DHT22;20140;49.356;8.812;2023-04-03T07:31:05;3.70;99.90
33837;DHT22;20140;49.356;8.812;2023-04-03T07:33:34;3.80;99.90
33837;DHT22;20140;49.356;8.812;2023-04-03T07:36:00;3.90;99.90
33837;DHT22;20140;49.356;8.812;2023-04-03T07:38:26;4.00;99.90
33837;DHT22;20140;49.356;8.812;2023-04-03T07:40:52;4.00;99.90
33837;DHT22;20140;49.356;8.812;2023-04-03T07:43:19;4.10;99.90
33837;DHT22;20140;49.356;8.812;2023-04-03T07:45:46;4.10;99.90
33837;DHT22;20140;49.356;8.812;2023-04-03T07:48:16;4.20;99.90
33837;DHT22;20140;49.356;8.812;2023-04-03T07:50:43;4.20;99.90
33837;DHT22;20140;49.356;8.812;2023-04-03T07:53:09;4.20;99.90
33837;DHT22;20140;49.356;8.812;2023-04-03T07:55:35;4.30;99.90
33837;DHT22;20140;49.356;8.812;2023-04-03T07:58:05;4.40;99.90
33837;DHT22;20140;49.356;8.812;2023-04-03T08:00:31;4.40;99.90
33837;DHT22;20140;49.356;8.812;2023-04-03T08:02:56;4.50;99.90
33837;DHT22;20140;49.356;8.812;2023-04-03T08:05:22;4.50;99.90
33837;DHT22;20140;49.356;8.812;2023-04-03T08:07:48;4.50;99.90
33837;DHT22;20140;49.356;8.812;2023-04-03T08:10:14;4.60;99.90
33837;DHT22;20140;49.356;8.812;2023-04-03T08:12:40;4.70;99.90
33837;DHT22;20140;49.356;8.812;2023-04-03T08:15:07;4.80;99.90
33837;DHT22;20140;49.356;8.812;2023-04-03T08:17:33;4.80;99.90
33837;DHT22;20140;49.356;8.812;2023-04-03T08:20:00;4.90;99.90
33837;DHT22;20140;49.356;8.812;2023-04-03T08:22:26;5.00;99.90
33837;DHT22;20140;49.356;8.812;2023-04-03T08:24:51;5.00;99.90
33837;DHT22;20140;49.356;8.812;2023-04-03T08:27:17;5.10;99.90
33837;DHT22;20140;49.356;8.812;2023-04-03T08:29:42;5.20;99.90
33837;DHT22;20140;49.356;8.812;2023-04-03T08:32:08;5.30;99.90
33837;DHT22;20140;49.356;8.812;2023-04-03T08:34:33;5.40;99.90
33837;DHT22;20140;49.356;8.812;2023-04-03T08:37:01;5.40;99.90
33837;DHT22;20140;49.356;8.812;2023-04-03T08:39:26;5.50;99.90
33837;DHT22;20140;49.356;8.812;2023-04-03T08:41:55;5.50;99.90
33837;DHT22;20140;49.356;8.812;2023-04-03T08:44:45;5.60;99.90
33837;DHT22;20140;49.356;8.812;2023-04-03T08:47:25;5.70;99.90
33837;DHT22;20140;49.356;8.812;2023-04-03T08:50:00;5.80;99.90
33837;DHT22;20140;49.356;8.812;2023-04-03T08:52:39;5.70;99.90
33837;DHT22;20140;49.356;8.812;2023-04-03T08:55:13;5.90;99.90
33837;DHT22;20140;49.356;8.812;2023-04-03T08:57:42;6.00;99.90
33837;DHT22;20140;49.356;8.812;2023-04-03T09:02:47;6.20;99.90
33837;DHT22;20140;49.356;8.812;2023-04-03T09:05:16;6.20;99.90
33837;DHT22;20140;49.356;8.812;2023-04-03T09:07:46;6.20;99.90
33837;DHT22;20140;49.356;8.812;2023-04-03T09:10:14;6.30;99.90
33837;DHT22;20140;49.356;8.812;2023-04-03T09:12:48;6.30;99.90
33837;DHT22;20140;49.356;8.812;2023-04-03T09:15:19;6.50;99.90
33837;DHT22;20140;49.356;8.812;2023-04-03T09:18:13;6.50;99.90
33837;DHT22;20140;49.356;8.812;2023-04-03T09:20:49;6.50;99.90
33837;DHT22;20140;49.356;8.812;2023-04-03T09:23:28;6.70;99.90
33837;DHT22;20140;49.356;8.812;2023-04-03T09:26:04;6.80;99.90
33837;DHT22;20140;49.356;8.812;2023-04-03T09:28:35;6.70;99.90
33837;DHT22;20140;49.356;8.812;2023-04-03T09:31:21;6.60;99.90
33837;DHT22;20140;49.356;8.812;2023-04-03T09:33:50;6.60;99.90
33837;DHT22;20140;49.356;8.812;2023-04-03T09:36:40;6.50;99.90
33837;DHT22;20140;49.356;8.812;2023-04-03T09:39:29;6.50;99.90
33837;DHT22;20140;49.356;8.812;2023-04-03T09:42:03;6.50;99.90
33837;DHT22;20140;49.356;8.812;2023-04-03T09:44:33;6.50;99.90
33837;DHT22;20140;49.356;8.812;2023-04-03T09:46:59;6.60;99.90
33837;DHT22;20140;49.356;8.812;2023-04-03T09:49:42;6.70;99.90
33837;DHT22;20140;49.356;8.812;2023-04-03T09:52:25;6.60;99.90
33837;DHT22;20140;49.356;8.812;2023-04-03T09:54:51;6.90;99.90
33837;DHT22;20140;49.356;8.812;2023-04-03T09:57:17;7.00;99.90
33837;DHT22;20140;49.356;8.812;2023-04-03T09:59:47;7.00;99.90
33837;DHT22;20140;49.356;8.812;2023-04-03T10:02:28;7.20;99.90
33837;DHT22;20140;49.356;8.812;2023-04-03T10:04:56;7.40;99.90
33837;DHT22;20140;49.356;8.812;2023-04-03T10:07:28;7.50;99.90
33837;DHT22;20140;49.356;8.812;2023-04-03T10:09:59;7.50;99.90
33837;DHT22;20140;49.356;8.812;2023-04-03T10:12:25;7.50;99.90
33837;DHT22;20140;49.356;8.812;2023-04-03T10:14:55;7.40;99.90
33837;DHT22;20140;49.356;8.812;2023-04-03T10:20:02;7.20;99.90
33837;DHT22;20140;49.356;8.812;2023-04-03T10:22:48;7.10;99.90
33837;DHT22;20140;49.356;8.812;2023-04-03T10:25:38;7.20;99.90
33837;DHT22;20140;49.356;8.812;2023-04-03T10:28:18;7.30;99.90
33837;DHT22;20140;49.356;8.812;2023-04-03T10:31:02;7.40;99.90
33837;DHT22;20140;49.356;8.812;2023-04-03T10:39:27;7.90;99.90
33837;DHT22;20140;49.356;8.812;2023-04-03T10:47:16;8.00;99.90
33837;DHT22;20140;49.356;8.812;2023-04-03T10:52:24;8.20;99.90
33837;DHT22;20140;49.356;8.812;2023-04-03T10:54:56;8.20;99.90
33837;DHT22;20140;49.356;8.812;2023-04-03T10:57:25;8.30;99.90
33837;DHT22;20140;49.356;8.812;2023-04-03T11:02:34;8.30;99.90
33837;DHT22;20140;49.356;8.812;2023-04-03T11:07:55;8.50;99.90
33837;DHT22;20140;49.356;8.812;2023-04-03T11:10:27;8.20;99.90
33837;DHT22;20140;49.356;8.812;2023-04-03T11:13:07;8.50;99.90
33837;DHT22;20140;49.356;8.812;2023-04-03T11:15:36;8.50;99.90
33837;DHT22;20140;49.356;8.812;2023-04-03T11:18:13;8.00;99.90
33837;DHT22;20140;49.356;8.812;2023-04-03T11:20:47;8.00;99.90
33837;DHT22;20140;49.356;8.812;2023-04-03T11:23:24;8.10;99.90
33837;DHT22;20140;49.356;8.812;2023-04-03T11:26:05;8.20;99.90
33837;DHT22;20140;49.356;8.812;2023-04-03T11:28:32;8.10;99.90
33837;DHT22;20140;49.356;8.812;2023-04-03T11:31:23;8.00;99.90
33837;DHT22;20140;49.356;8.812;2023-04-03T11:34:00;8.20;99.90
33837;DHT22;20140;49.356;8.812;2023-04-03T11:36:33;8.50;99.90
33837;DHT22;20140;49.356;8.812;2023-04-03T11:39:19;8.20;99.90
33837;DHT22;20140;49.356;8.812;2023-04-03T11:41:47;8.00;99.90
33837;DHT22;20140;49.356;8.812;2023-04-03T11:44:35;8.20;99.90
33837;DHT22;20140;49.356;8.812;2023-04-03T11:47:06;8.10;99.90
33837;DHT22;20140;49.356;8.812;2023-04-03T11:55:01;7.90;99.90
33837;DHT22;20140;49.356;8.812;2023-04-03T12:00:50;8.30;99.90
33837;DHT22;20140;49.356;8.812;2023-04-03T12:05:52;8.50;99.90
33837;DHT22;20140;49.356;8.812;2023-04-03T12:08:25;8.40;99.90
33837;DHT22;20140;49.356;8.812;2023-04-03T12:16:21;8.30;99.90
33837;DHT22;20140;49.356;8.812;2023-04-03T12:27:02;7.80;99.80
33837;DHT22;20140;49.356;8.812;2023-04-03T12:43:28;8.60;99.90
33837;DHT22;20140;49.356;8.812;2023-04-03T12:48:34;8.60;99.30
33837;DHT22;20140;49.356;8.812;2023-04-03T12:51:02;8.80;99.90
33837;DHT22;20140;49.356;8.812;2023-04-03T12:53:32;9.00;99.30
33837;DHT22;20140;49.356;8.812;2023-04-03T12:56:20;9.40;98.30
33837;DHT22;20140;49.356;8.812;2023-04-03T12:58:47;9.10;98.60
33837;DHT22;20140;49.356;8.812;2023-04-03T13:01:21;9.00;97.20
33837;DHT22;20140;49.356;8.812;2023-04-03T13:03:51;8.30;98.80
33837;DHT22;20140;49.356;8.812;2023-04-03T13:06:30;8.30;99.90
33837;DHT22;20140;49.356;8.812;2023-04-03T13:09:00;8.30;99.90
33837;DHT22;20140;49.356;8.812;2023-04-03T13:11:30;8.00;99.70
33837;DHT22;20140;49.356;8.812;2023-04-03T13:14:04;8.00;99.90
33837;DHT22;20140;49.356;8.812;2023-04-03T13:16:31;8.50;99.90
33837;DHT22;20140;49.356;8.812;2023-04-03T13:18:58;8.50;98.80
33837;DHT22;20140;49.356;8.812;2023-04-03T13:21:29;8.60;99.30
33837;DHT22;20140;49.356;8.812;2023-04-03T13:23:58;8.70;99.30
33837;DHT22;20140;49.356;8.812;2023-04-03T13:26:28;9.90;99.90
33837;DHT22;20140;49.356;8.812;2023-04-03T13:28:57;10.40;94.30
33837;DHT22;20140;49.356;8.812;2023-04-03T13:31:30;11.50;86.90
33837;DHT22;20140;49.356;8.812;2023-04-03T13:36:37;10.20;90.50
33837;DHT22;20140;49.356;8.812;2023-04-03T13:41:40;9.60;92.60
33837;DHT22;20140;49.356;8.812;2023-04-03T13:47:14;9.60;94.20
33837;DHT22;20140;49.356;8.812;2023-04-03T13:50:03;9.70;92.60
33837;DHT22;20140;49.356;8.812;2023-04-03T13:52:39;9.70;91.90
33837;DHT22;20140;49.356;8.812;2023-04-03T14:02:59;10.00;89.50
33837;DHT22;20140;49.356;8.812;2023-04-03T14:05:25;9.10;88.20
33837;DHT22;20140;49.356;8.812;2023-04-03T14:07:53;8.70;90.00
33837;DHT22;20140;49.356;8.812;2023-04-03T14:10:19;9.30;89.60
33837;DHT22;20140;49.356;8.812;2023-04-03T14:12:45;9.50;86.20
33837;DHT22;20140;49.356;8.812;2023-04-03T14:15:24;10.00;87.90
33837;DHT22;20140;49.356;8.812;2023-04-03T14:17:52;10.70;87.00
33837;DHT22;20140;49.356;8.812;2023-04-03T14:20:20;10.70;86.80
33837;DHT22;20140;49.356;8.812;2023-04-03T14:22:47;10.40;85.60
33837;DHT22;20140;49.356;8.812;2023-04-03T14:25:14;10.40;85.50
33837;DHT22;20140;49.356;8.812;2023-04-03T14:27:42;10.00;85.00
33837;DHT22;20140;49.356;8.812;2023-04-03T14:30:18;9.90;86.50
33837;DHT22;20140;49.356;8.812;2023-04-03T14:32:45;10.80;88.10
33837;DHT22;20140;49.356;8.812;2023-04-03T14:35:11;11.40;83.20
33837;DHT22;20140;49.356;8.812;2023-04-03T14:37:37;12.80;84.50
33837;DHT22;20140;49.356;8.812;2023-04-03T14:40:04;13.50;77.30
33837;DHT22;20140;49.356;8.812;2023-04-03T14:42:32;14.10;71.90
33837;DHT22;20140;49.356;8.812;2023-04-03T14:44:59;14.30;69.80
33837;DHT22;20140;49.356;8.812;2023-04-03T14:47:27;14.00;69.80
33837;DHT22;20140;49.356;8.812;2023-04-03T14:49:53;14.50;67.70
33837;DHT22;20140;49.356;8.812;2023-04-03T14:52:25;14.60;64.60
33837;DHT22;20140;49.356;8.812;2023-04-03T14:54:52;13.90;66.40
33837;DHT22;20140;49.356;8.812;2023-04-03T14:57:18;14.70;65.90
33837;DHT22;20140;49.356;8.812;2023-04-03T14:59:45;15.50;65.00
33837;DHT22;20140;49.356;8.812;2023-04-03T15:02:31;15.60;62.50
33837;DHT22;20140;49.356;8.812;2023-04-03T15:04:58;15.60;60.60
33837;DHT22;20140;49.356;8.812;2023-04-03T15:07:26;15.10;63.60
33837;DHT22;20140;49.356;8.812;2023-04-03T15:09:52;15.80;59.20
33837;DHT22;20140;49.356;8.812;2023-04-03T15:12:18;16.20;60.40
33837;DHT22;20140;49.356;8.812;2023-04-03T15:14:43;15.30;58.90
33837;DHT22;20140;49.356;8.812;2023-04-03T15:17:16;16.00;60.40
33837;DHT22;20140;49.356;8.812;2023-04-03T15:19:43;16.10;57.20
33837;DHT22;20140;49.356;8.812;2023-04-03T15:22:17;15.00;56.70
33837;DHT22;20140;49.356;8.812;2023-04-03T15:24:43;15.20;56.90
33837;DHT22;20140;49.356;8.812;2023-04-03T15:27:09;15.10;56.90
33837;DHT22;20140;49.356;8.812;2023-04-03T15:29:37;14.60;57.20
33837;DHT22;20140;49.356;8.812;2023-04-03T15:32:03;13.90;58.00
33837;DHT22;20140;49.356;8.812;2023-04-03T15:34:28;14.10;59.20
33837;DHT22;20140;49.356;8.812;2023-04-03T15:36:54;12.30;59.00
33837;DHT22;20140;49.356;8.812;2023-04-03T15:39:20;13.10;59.40
33837;DHT22;20140;49.356;8.812;2023-04-03T15:41:46;12.90;59.80
33837;DHT22;20140;49.356;8.812;2023-04-03T15:44:12;13.20;61.20
33837;DHT22;20140;49.356;8.812;2023-04-03T15:46:38;14.20;60.20
33837;DHT22;20140;49.356;8.812;2023-04-03T15:49:04;14.70;61.70
33837;DHT22;20140;49.356;8.812;2023-04-03T15:51:30;15.00;58.70
33837;DHT22;20140;49.356;8.812;2023-04-03T15:53:56;14.30;57.00
33837;DHT22;20140;49.356;8.812;2023-04-03T15:56:22;14.30;58.30
33837;DHT22;20140;49.356;8.812;2023-04-03T15:58:47;15.00;60.90
33837;DHT22;20140;49.356;8.812;2023-04-03T16:01:13;14.30;57.90
33837;DHT22;20140;49.356;8.812;2023-04-03T16:03:40;14.20;55.60
33837;DHT22;20140;49.356;8.812;2023-04-03T16:06:11;14.10;56.00
33837;DHT22;20140;49.356;8.812;2023-04-03T16:08:37;13.90;58.20
33837;DHT22;20140;49.356;8.812;2023-04-03T16:11:03;14.50;55.20
33837;DHT22;20140;49.356;8.812;2023-04-03T16:13:28;13.20;57.60
33837;DHT22;20140;49.356;8.812;2023-04-03T16:15:54;13.30;57.60
33837;DHT22;20140;49.356;8.812;2023-04-03T16:18:20;13.00;55.60
33837;DHT22;20140;49.356;8.812;2023-04-03T16:20:45;13.00;54.70
33837;DHT22;20140;49.356;8.812;2023-04-03T16:23:11;13.40;54.00
33837;DHT22;20140;49.356;8.812;2023-04-03T16:25:37;13.40;56.20
33837;DHT22;20140;49.356;8.812;2023-04-03T16:28:02;13.90;58.50
33837;DHT22;20140;49.356;8.812;2023-04-03T16:30:29;13.80;56.20
33837;DHT22;20140;49.356;8.812;2023-04-03T16:32:54;13.70;57.30
33837;DHT22;20140;49.356;8.812;2023-04-03T16:35:21;13.80;56.00
33837;DHT22;20140;49.356;8.812;2023-04-03T16:37:47;13.60;56.60
33837;DHT22;20140;49.356;8.812;2023-04-03T16:40:13;12.50;55.90
33837;DHT22;20140;49.356;8.812;2023-04-03T16:42:39;11.90;56.90
33837;DHT22;20140;49.356;8.812;2023-04-03T16:45:05;11.70;57.60
33837;DHT22;20140;49.356;8.812;2023-04-03T16:47:32;12.60;58.40
33837;DHT22;20140;49.356;8.812;2023-04-03T16:49:57;13.20;58.10
33837;DHT22;20140;49.356;8.812;2023-04-03T16:52:23;12.70;57.30
33837;DHT22;20140;49.356;8.812;2023-04-03T16:54:48;12.80;57.20
33837;DHT22;20140;49.356;8.812;2023-04-03T16:57:14;12.70;57.30
33837;DHT22;20140;49.356;8.812;2023-04-03T16:59:40;12.80;58.50
33837;DHT22;20140;49.356;8.812;2023-04-03T17:02:05;12.40;56.20
33837;DHT22;20140;49.356;8.812;2023-04-03T17:04:31;12.20;57.00
33837;DHT22;20140;49.356;8.812;2023-04-03T17:06:57;12.30;58.70
33837;DHT22;20140;49.356;8.812;2023-04-03T17:09:22;12.20;57.90
33837;DHT22;20140;49.356;8.812;2023-04-03T17:11:48;12.30;58.80
33837;DHT22;20140;49.356;8.812;2023-04-03T17:14:14;12.30;58.10
33837;DHT22;20140;49.356;8.812;2023-04-03T17:16:39;12.10;60.30
33837;DHT22;20140;49.356;8.812;2023-04-03T17:19:05;12.00;59.40